Time;durP1;ratioP1;P1;durP2;ratioP2;P2;SDS_P1;SDS_P2;PMS_P1;PMS_P2;Temp;Humidity;BMP_temperature;BMP_pressure;BME280_temperature;BME280_humidity;BME280_pressure;Samples;Min_cycle;Max_cycle;Signal;HPM_P1;HPM_P2
2021/12/10 00:01:20;;;;;;;25.03;14.83;;;;;;;5.03;100.00;100126.22;1589211;90;21041;-72
2021/12/10 00:03:51;;;;;;;23.73;13.43;;;;;;;5.02;100.00;100120.99;1589305;90;21242;-73
2021/12/10 00:06:23;;;;;;;24.73;13.60;;;;;;;5.03;100.00;100126.22;1589076;90;21077;-71
2021/12/10 00:08:55;;;;;;;25.80;14.23;;;;;;;5.05;100.00;100129.61;1557635;90;21065;-71
2021/12/10 00:11:35;;;;;;;28.50;15.10;;;;;;;5.05;100.00;100131.45;1530191;94;21626;-73
2021/12/10 00:14:03;;;;;;;24.17;13.77;;;;;;;5.05;100.00;100132.80;1586476;89;21084;-73
2021/12/10 00:16:32;;;;;;;26.50;14.90;;;;;;;5.05;100.00;100134.13;1634296;88;21054;-72
2021/12/10 00:19:15;;;;;;;26.27;14.83;;;;;;;5.04;100.00;100141.80;1634363;88;21627;-74
2021/12/10 00:21:29;;;;;;;25.23;14.27;;;;;;;5.03;100.00;100139.63;1628486;88;21034;-72
2021/12/10 00:23:57;;;;;;;25.13;13.17;;;;;;;5.04;100.00;100143.98;1634657;88;21489;-72
2021/12/10 00:26:24;;;;;;;24.30;13.20;;;;;;;5.03;100.00;100146.80;1634411;88;21106;-72
2021/12/10 00:28:51;;;;;;;24.70;13.83;;;;;;;5.02;100.00;100155.83;1636804;88;21095;-74
2021/12/10 00:34:28;;;;;;;24.30;12.93;;;;;;;5.05;100.00;100152.39;1637274;88;21137;-73
2021/12/10 00:37:00;;;;;;;24.75;13.58;;;;;;;5.07;100.00;100149.59;1637467;88;21600;-73
2021/12/10 00:39:31;;;;;;;23.73;13.10;;;;;;;5.09;100.00;100159.17;1637325;88;21044;-74
2021/12/10 00:41:59;;;;;;;24.30;13.17;;;;;;;5.08;100.00;100154.82;1558920;92;21136;-72
2021/12/10 00:44:26;;;;;;;24.40;13.87;;;;;;;5.06;100.00;100155.41;1558954;92;21133;-73
2021/12/10 00:46:53;;;;;;;24.10;13.50;;;;;;;5.04;100.00;100156.05;1559183;92;21106;-73
2021/12/10 00:49:20;;;;;;;23.40;13.07;;;;;;;5.04;100.00;100159.23;1559098;92;21109;-72
2021/12/10 00:51:47;;;;;;;25.73;13.70;;;;;;;5.05;100.00;100162.28;1559214;92;21536;-74
2021/12/10 00:54:14;;;;;;;29.33;14.00;;;;;;;5.04;100.00;100160.06;1559190;92;21596;-72
2021/12/10 00:56:41;;;;;;;24.50;13.77;;;;;;;5.03;100.00;100157.05;1583705;91;21070;-73
2021/12/10 00:59:10;;;;;;;26.57;14.30;;;;;;;5.04;100.00;100165.42;1584841;91;21077;-72
2021/12/10 01:01:38;;;;;;;25.30;13.87;;;;;;;5.03;100.00;100155.70;1584857;91;21058;-73
2021/12/10 01:04:09;;;;;;;24.70;13.30;;;;;;;5.02;100.00;100161.19;1584747;91;21539;-73
2021/12/10 01:06:36;;;;;;;25.17;14.10;;;;;;;5.01;100.00;100160.36;1583186;91;21095;-73
2021/12/10 01:09:09;;;;;;;24.23;14.23;;;;;;;5.01;100.00;100159.48;1558926;92;21094;-72
2021/12/10 01:11:39;;;;;;;;;;;;;;;5.00;100.00;100161.32;1560401;91;21137;-73
2021/12/10 01:14:20;;;;;;;24.07;13.23;;;;;;;5.02;100.00;100163.88;1572102;91;20201;-74
2021/12/10 01:25:11;;;;;;;25.77;13.83;;;;;;;5.00;100.00;100161.32;1574821;91;21189;-74
2021/12/10 01:27:39;;;;;;;23.77;13.17;;;;;;;5.00;100.00;100161.82;1571458;91;21093;-74
2021/12/10 01:30:17;;;;;;;25.70;13.20;;;;;;;4.99;100.00;100167.65;1578791;91;21579;-74
2021/12/10 01:32:49;;;;;;;25.20;11.97;;;;;;;4.97;100.00;100165.59;1578687;91;21113;-72
2021/12/10 01:35:21;;;;;;;23.90;12.77;;;;;;;4.98;100.00;100165.97;1521323;94;21138;-73
2021/12/10 01:37:51;;;;;;;22.83;12.17;;;;;;;4.99;100.00;100170.83;1530281;89;21660;-74
2021/12/10 01:40:20;;;;;;;24.13;13.00;;;;;;;5.01;100.00;100176.90;1621370;88;21065;-73
2021/12/10 01:42:49;;;;;;;24.50;12.37;;;;;;;4.99;100.00;100178.37;1621822;88;21529;-72
2021/12/10 01:45:26;;;;;;;24.03;12.97;;;;;;;4.99;100.00;100177.03;1621378;88;21109;-73
2021/12/10 01:48:04;;;;;;;23.90;12.73;;;;;;;4.99;100.00;100177.53;1621696;88;21538;-73
2021/12/10 01:50:33;;;;;;;25.17;12.50;;;;;;;4.98;100.00;100170.48;1559125;92;21631;-73
2021/12/10 01:53:04;;;;;;;22.77;11.80;;;;;;;4.97;100.00;100176.81;1559033;92;21101;-73
2021/12/10 01:55:32;;;;;;;23.43;12.37;;;;;;;4.94;100.00;100175.27;1559194;92;21104;-74
2021/12/10 01:57:59;;;;;;;24.27;12.63;;;;;;;4.91;100.00;100175.02;1559314;91;21113;-71
2021/12/10 02:00:31;;;;;;;23.37;12.70;;;;;;;4.89;100.00;100171.63;1559111;92;21072;-74
2021/12/10 02:02:57;;;;;;;21.87;12.00;;;;;;;4.92;100.00;100178.53;1559355;92;21611;-72
2021/12/10 02:05:24;;;;;;;23.17;12.77;;;;;;;4.89;100.00;100174.30;1559260;92;21125;-73
2021/12/10 02:07:54;;;;;;;23.70;13.23;;;;;;;4.89;100.00;100179.66;1544686;92;21102;-72
2021/12/10 02:10:22;;;;;;;22.90;12.40;;;;;;;4.91;100.00;100183.55;1534661;93;21199;-72
2021/12/10 02:12:50;;;;;;;22.40;12.53;;;;;;;4.91;100.00;100178.20;1543656;92;21158;-73
2021/12/10 02:15:16;;;;;;;21.67;12.13;;;;;;;4.90;100.00;100176.48;1560840;92;21086;-72
2021/12/10 02:17:47;;;;;;;21.57;12.90;;;;;;;4.90;100.00;100184.52;1561308;92;21019;-73
2021/12/10 02:20:36;;;;;;;22.73;12.67;;;;;;;4.88;100.00;100182.47;1561088;91;21134;-73
2021/12/10 02:23:06;;;;;;;22.63;12.40;;;;;;;4.89;100.00;100178.83;1540333;93;21108;-74
2021/12/10 02:25:36;;;;;;;24.67;13.33;;;;;;;4.88;100.00;100179.79;1540319;92;21112;-73
2021/12/10 02:28:02;;;;;;;26.37;13.70;;;;;;;4.86;100.00;100180.41;1537827;92;21127;-73
2021/12/10 02:30:29;;;;;;;24.40;13.53;;;;;;;4.85;100.00;100180.05;1532641;94;21126;-72
2021/12/10 02:32:56;;;;;;;22.23;13.27;;;;;;;4.84;100.00;100177.02;1537076;93;21037;-74
2021/12/10 02:35:23;;;;;;;22.73;12.40;;;;;;;4.85;100.00;100183.59;1576838;91;21547;-73
2021/12/10 02:37:50;;;;;;;23.13;13.27;;;;;;;4.84;100.00;100191.27;1577106;91;21057;-73
2021/12/10 02:40:19;;;;;;;22.80;12.80;;;;;;;4.82;100.00;100183.84;1577167;91;21106;-75
2021/12/10 02:42:46;;;;;;;24.57;13.83;;;;;;;4.81;100.00;100183.98;1573947;91;21610;-73
2021/12/10 02:45:15;;;;;;;22.93;13.27;;;;;;;4.82;100.00;100189.70;1560345;92;21120;-73
2021/12/10 02:47:44;;;;;;;24.47;14.20;;;;;;;4.83;100.00;100188.70;1619198;87;20996;-73
2021/12/10 02:50:13;;;;;;;28.30;15.73;;;;;;;4.81;100.00;100191.52;1643207;87;21016;-73
2021/12/10 02:52:40;;;;;;;33.23;17.17;;;;;;;4.81;100.00;100192.85;1643392;87;21056;-74
2021/12/10 02:57:39;;;;;;;35.77;21.20;;;;;;;4.82;100.00;100203.10;1604163;89;21076;-72
2021/12/10 03:00:11;;;;;;;32.40;20.23;;;;;;;4.85;100.00;100205.03;1539393;92;21072;-72
2021/12/10 03:02:38;;;;;;;31.40;18.57;;;;;;;4.85;100.00;100196.99;1565298;92;21127;-73
2021/12/10 03:05:06;;;;;;;31.50;18.57;;;;;;;4.84;100.00;100201.98;1565298;92;21527;-73
2021/12/10 03:07:34;;;;;;;46.33;29.37;;;;;;;4.84;100.00;100206.00;1555330;92;21495;-72
2021/12/10 03:10:01;;;;;;;40.87;25.93;;;;;;;4.84;100.00;100203.31;1516984;93;21152;-73
2021/12/10 03:12:31;;;;;;;40.87;23.60;;;;;;;4.83;100.00;100190.05;1547196;90;21145;-73
2021/12/10 03:14:57;;;;;;;30.50;18.30;;;;;;;4.83;100.00;100192.23;1565338;92;21131;-73
2021/12/10 03:17:28;;;;;;;27.70;16.10;;;;;;;4.83;100.00;100191.39;1565294;92;21714;-72
2021/12/10 03:19:55;;;;;;;26.50;15.27;;;;;;;4.82;100.00;100189.20;1565098;92;21109;-72
2021/12/10 03:22:23;;;;;;;26.33;14.80;;;;;;;4.81;100.00;100190.17;1565393;92;21566;-72
2021/12/10 03:27:21;;;;;;;24.47;13.90;;;;;;;4.81;100.00;100189.33;1535300;93;21184;-73
2021/12/10 03:29:48;;;;;;;27.37;16.13;;;;;;;4.81;100.00;100187.50;1543855;90;21094;-73
2021/12/10 03:32:19;;;;;;;27.63;15.83;;;;;;;4.81;100.00;100187.99;1544414;93;21095;-73
2021/12/10 03:34:46;;;;;;;33.00;19.00;;;;;;;4.81;100.00;100194.69;1544278;93;21070;-73
2021/12/10 03:37:17;;;;;;;30.47;17.90;;;;;;;4.80;100.00;100187.16;1544205;93;21094;-73
2021/12/10 03:39:42;;;;;;;35.57;18.27;;;;;;;4.80;100.00;100188.95;1543854;93;21106;-74
2021/12/10 03:42:09;;;;;;;31.57;17.23;;;;;;;4.79;100.00;100189.45;1544462;93;21061;-71
2021/12/10 03:44:37;;;;;;;29.23;15.80;;;;;;;4.80;100.00;100192.98;1544253;92;21119;-72
2021/12/10 03:47:06;;;;;;;33.13;17.00;;;;;;;4.80;100.00;100184.94;1544329;93;21047;-74
2021/12/10 03:49:33;;;;;;;28.97;16.03;;;;;;;4.79;100.00;100186.78;1544102;93;21086;-74
2021/12/10 03:52:00;;;;;;;28.77;16.20;;;;;;;4.78;100.00;100191.80;1544438;92;21162;-73
2021/12/10 03:54:26;;;;;;;26.13;14.03;;;;;;;4.78;100.00;100185.10;1544392;93;21551;-71
2021/12/10 03:56:53;;;;;;;23.47;12.67;;;;;;;4.78;100.00;100195.81;1544447;93;21051;-73
2021/12/10 03:59:22;;;;;;;25.13;13.30;;;;;;;4.80;100.00;100195.66;1544389;93;21082;-73
2021/12/10 04:01:53;;;;;;;24.43;13.73;;;;;;;4.80;100.00;100194.31;1591808;89;21048;-74
2021/12/10 04:04:28;;;;;;;22.53;12.37;;;;;;;4.82;100.00;100196.41;1589966;90;21093;-72
2021/12/10 04:06:55;;;;;;;21.50;11.93;;;;;;;4.82;100.00;100191.89;1588096;89;21599;-73
2021/12/10 04:09:24;;;;;;;26.17;14.07;;;;;;;4.84;100.00;100193.09;1579144;91;21061;-73
2021/12/10 04:11:53;;;;;;;36.67;22.90;;;;;;;4.86;100.00;100197.33;1578904;91;21093;-72
2021/12/10 04:14:21;;;;;;;36.53;22.67;;;;;;;4.88;100.00;100195.37;1597276;90;21046;-73
2021/12/10 04:16:54;;;;;;;34.63;21.40;;;;;;;4.89;100.00;100195.73;1598097;90;21090;-72
2021/12/10 04:19:17;;;;;;;31.57;19.63;;;;;;;4.90;100.00;100195.23;1597771;90;21086;-73
2021/12/10 04:21:45;;;;;;;28.40;14.63;;;;;;;4.90;100.00;100201.44;1597839;90;21093;-73
2021/12/10 04:24:18;;;;;;;26.03;15.07;;;;;;;4.91;100.00;100199.13;1627625;87;21096;-73
2021/12/10 04:26:46;;;;;;;25.77;13.97;;;;;;;4.90;100.00;100193.91;1652783;87;21018;-73
2021/12/10 04:29:13;;;;;;;26.83;14.13;;;;;;;4.89;100.00;100193.06;1669743;84;21050;-72
2021/12/10 04:31:40;;;;;;;23.70;13.50;;;;;;;4.89;100.00;100199.76;1680051;85;21049;-73
2021/12/10 04:34:07;;;;;;;26.43;14.40;;;;;;;4.88;100.00;100195.37;1680766;85;21026;-72
2021/12/10 04:36:34;;;;;;;24.47;14.30;;;;;;;4.87;100.00;100188.80;1679949;85;20995;-73
2021/12/10 04:39:01;;;;;;;25.33;14.57;;;;;;;4.88;100.00;100194.03;1680276;85;21038;-73
2021/12/10 04:41:28;;;;;;;24.20;13.53;;;;;;;4.87;100.00;100191.01;1679952;85;21034;-73
2021/12/10 04:43:55;;;;;;;23.63;12.87;;;;;;;4.90;100.00;100187.20;1680167;85;21299;-73
2021/12/10 04:46:22;;;;;;;21.57;12.63;;;;;;;4.91;100.00;100189.76;1680153;85;21669;-72
2021/12/10 04:48:57;;;;;;;22.47;12.87;;;;;;;4.91;100.00;100195.11;1680395;85;21090;-72
2021/12/10 04:51:28;;;;;;;26.47;13.60;;;;;;;4.90;100.00;100191.22;1680986;85;21022;-71
2021/12/10 04:53:56;;;;;;;26.37;13.90;;;;;;;4.89;100.00;100193.06;1680788;85;21006;-72
2021/12/10 04:56:23;;;;;;;24.43;12.60;;;;;;;4.91;100.00;100198.30;1679968;85;21038;-72
2021/12/10 04:58:50;;;;;;;20.87;11.60;;;;;;;4.91;100.00;100196.95;1679956;85;21030;-73
2021/12/10 05:01:17;;;;;;;21.83;13.20;;;;;;;4.91;100.00;100200.47;1680164;85;21026;-73
2021/12/10 05:03:44;;;;;;;23.27;12.17;;;;;;;4.92;100.00;100204.87;1680202;85;21049;-73
2021/12/10 05:06:11;;;;;;;20.50;11.83;;;;;;;4.92;100.00;100205.33;1680120;85;21524;-73
2021/12/10 05:08:38;;;;;;;22.30;12.07;;;;;;;4.92;100.00;100210.22;1660784;85;21475;-72
2021/12/10 05:11:07;;;;;;;22.73;12.00;;;;;;;4.91;100.00;100206.33;1658211;87;21053;-73
2021/12/10 05:13:35;;;;;;;23.00;11.30;;;;;;;4.91;100.00;100203.16;1658313;84;21547;-73
2021/12/10 05:16:02;;;;;;;22.43;12.03;;;;;;;4.91;100.00;100199.13;1658414;86;21077;-72
2021/12/10 05:18:35;;;;;;;21.73;11.47;;;;;;;4.92;100.00;100203.99;1658194;86;21536;-74
2021/12/10 05:21:03;;;;;;;25.37;12.85;;;;;;;4.91;100.00;100204.49;1658620;86;21077;-72
2021/12/10 05:23:30;;;;;;;25.80;12.47;;;;;;;4.91;100.00;100207.17;1657880;86;21575;-73
2021/12/10 05:25:57;;;;;;;23.57;12.87;;;;;;;4.90;100.00;100200.10;1657895;86;21101;-70
2021/12/10 05:28:24;;;;;;;24.97;12.93;;;;;;;4.91;100.00;100204.99;1659330;85;21030;-71
2021/12/10 05:30:54;;;;;;;29.70;14.50;;;;;;;4.91;100.00;100209.85;1665114;86;21057;-72
2021/12/10 05:33:19;;;;;;;29.33;14.03;;;;;;;4.93;100.00;100211.91;1661821;86;21046;-71
2021/12/10 05:35:47;;;;;;;28.70;15.03;;;;;;;4.93;100.00;100207.89;1665022;86;21038;-72
2021/12/10 05:38:17;;;;;;;25.23;15.00;;;;;;;4.95;100.00;100215.80;1665087;86;21142;-72
2021/12/10 05:40:46;;;;;;;29.70;18.03;;;;;;;4.97;100.00;100214.33;1663651;86;21074;-70
2021/12/10 05:43:13;;;;;;;27.27;15.67;;;;;;;4.99;100.00;100213.70;1630146;88;21050;-71
2021/12/10 05:45:39;;;;;;;27.27;15.07;;;;;;;5.02;100.00;100221.49;1601462;89;21028;-69
2021/12/10 05:48:06;;;;;;;30.27;15.03;;;;;;;5.03;100.00;100221.84;1630080;86;21533;-70
2021/12/10 05:50:34;;;;;;;30.60;17.10;;;;;;;5.06;100.00;100225.10;1631140;88;21091;-70
2021/12/10 05:53:01;;;;;;;33.37;15.03;;;;;;;5.09;100.00;100220.83;1629980;88;21001;-69
2021/12/10 05:55:28;;;;;;;35.87;19.27;;;;;;;5.10;100.00;100229.24;1630050;88;21049;-71
2021/12/10 05:57:55;;;;;;;35.43;19.87;;;;;;;5.12;100.00;100233.97;1632043;88;21032;-70
2021/12/10 06:00:33;;;;;;;42.27;21.13;;;;;;;5.12;100.00;100238.00;1631286;88;21085;-70
2021/12/10 06:03:00;;;;;;;35.93;19.37;;;;;;;5.14;100.00;100243.23;1556765;91;21071;-70
2021/12/10 06:05:27;;;;;;;38.33;19.50;;;;;;;5.16;100.00;100243.95;1556669;91;21031;-69
2021/12/10 06:07:55;;;;;;;32.57;17.53;;;;;;;5.17;100.00;100248.34;1552980;92;21543;-70
2021/12/10 06:10:22;;;;;;;31.37;16.63;;;;;;;5.19;100.00;100250.39;1569136;91;21070;-69
2021/12/10 06:12:49;;;;;;;34.63;17.63;;;;;;;5.22;100.00;100251.95;1559593;90;21585;-71
2021/12/10 06:15:18;;;;;;;31.40;17.33;;;;;;;5.22;100.00;100253.28;1553700;91;21082;-70
2021/12/10 06:17:45;;;;;;;32.10;17.77;;;;;;;5.25;100.00;100262.42;1555922;91;21010;-70
2021/12/10 06:20:14;;;;;;;34.67;18.23;;;;;;;5.25;100.00;100256.55;1555810;91;21544;-70
2021/12/10 06:22:41;;;;;;;38.20;17.80;;;;;;;5.27;100.00;100259.95;1556179;91;21061;-70
2021/12/10 06:25:08;;;;;;;38.17;19.47;;;;;;;5.29;100.00;100258.48;1554663;91;21046;-70
2021/12/10 06:27:35;;;;;;;34.20;19.33;;;;;;;5.32;100.00;100262.25;1553304;91;21058;-71
2021/12/10 06:30:04;;;;;;;32.33;18.00;;;;;;;5.33;100.00;100258.59;1554988;91;21536;-69
2021/12/10 06:32:32;;;;;;;38.50;18.37;;;;;;;5.37;100.00;100259.19;1551929;91;21651;-72
2021/12/10 06:34:59;;;;;;;38.67;19.70;;;;;;;5.39;100.00;100259.39;1538026;92;21077;-71
2021/12/10 06:37:25;;;;;;;37.47;19.47;;;;;;;5.41;100.00;100253.91;1555198;91;21015;-74
2021/12/10 06:39:52;;;;;;;28.37;16.87;;;;;;;5.42;100.00;100257.80;1548018;92;21097;-73
2021/12/10 06:42:19;;;;;;;35.73;19.20;;;;;;;5.42;100.00;100260.48;1538231;91;21073;-71
2021/12/10 06:44:46;;;;;;;35.93;19.37;;;;;;;5.44;100.00;100259.02;1518827;94;21129;-71
2021/12/10 06:47:17;;;;;;;47.67;26.23;;;;;;;5.47;100.00;100261.41;1518872;93;21115;-74
2021/12/10 06:49:44;;;;;;;38.80;21.90;;;;;;;5.48;100.00;100258.59;1499558;95;21195;-72
2021/12/10 06:52:11;;;;;;;32.43;18.97;;;;;;;5.53;100.00;100255.52;1498708;95;21624;-72
2021/12/10 06:54:39;;;;;;;31.40;17.33;;;;;;;5.57;100.00;100256.95;1502820;95;21091;-73
2021/12/10 06:57:06;;;;;;;32.37;17.57;;;;;;;5.61;100.00;100264.23;1506355;95;21050;-75
2021/12/10 06:59:35;;;;;;;35.10;19.70;;;;;;;5.65;100.00;100265.19;1505790;94;21133;-71
2021/12/10 07:02:02;;;;;;;49.63;21.20;;;;;;;5.69;100.00;100271.98;1531588;94;21102;-70
2021/12/10 07:04:31;;;;;;;57.47;24.60;;;;;;;5.72;100.00;100269.53;1583857;90;21080;-72
2021/12/10 07:06:58;;;;;;;42.90;20.50;;;;;;;5.74;100.00;100271.59;1582096;90;21598;-75
2021/12/10 07:09:25;;;;;;;45.93;19.77;;;;;;;5.75;100.00;100269.24;1588742;89;21024;-71
2021/12/10 07:11:55;;;;;;;31.10;16.13;;;;;;;5.79;100.00;100271.16;1602186;89;21025;-74
2021/12/10 07:14:22;;;;;;;29.90;15.63;;;;;;;5.81;100.00;100274.59;1569589;90;21161;-74
2021/12/10 07:16:57;;;;;;;31.43;16.67;;;;;;;5.81;100.00;100272.75;1575517;91;21326;-75
2021/12/10 07:19:26;;;;;;;33.73;17.50;;;;;;;5.82;100.00;100266.88;1568965;91;21536;-73
2021/12/10 07:21:53;;;;;;;29.87;16.90;;;;;;;5.83;100.00;100269.43;1572168;91;21171;-69
2021/12/10 07:24:20;;;;;;;24.80;14.73;;;;;;;5.85;100.00;100266.61;1570582;91;21591;-72
2021/12/10 07:26:48;;;;;;;27.53;15.53;;;;;;;5.84;100.00;100268.92;1570868;91;21535;-73
2021/12/10 07:29:15;;;;;;;28.47;15.67;;;;;;;5.84;100.00;100262.22;1567809;91;21070;-74
2021/12/10 07:31:43;;;;;;;30.10;17.37;;;;;;;5.85;100.00;100270.14;1571762;91;21166;-73
2021/12/10 07:34:10;;;;;;;33.37;19.77;;;;;;;5.85;100.00;100262.59;1573613;91;21083;-72
2021/12/10 07:39:08;;;;;;;40.00;20.70;;;;;;;5.88;100.00;100279.77;1591485;89;21264;-72
2021/12/10 07:41:36;;;;;;;33.10;19.23;;;;;;;5.90;100.00;100274.61;1558603;92;21222;-76
2021/12/10 07:44:05;;;;;;;35.90;19.13;;;;;;;5.93;100.00;100273.98;1562139;91;21092;-75
2021/12/10 07:46:34;;;;;;;36.97;18.97;;;;;;;5.93;100.00;100273.98;1563124;91;21058;-75
2021/12/10 07:49:01;;;;;;;34.27;18.00;;;;;;;5.95;100.00;100276.03;1542277;92;21100;-76
2021/12/10 07:51:30;;;;;;;36.87;18.93;;;;;;;5.95;100.00;100279.59;1552632;92;21047;-77
2021/12/10 07:53:57;;;;;;;30.77;16.97;;;;;;;5.99;100.00;100276.17;1537180;92;21046;-75
2021/12/10 07:56:26;;;;;;;31.17;17.03;;;;;;;5.99;100.00;100282.88;1549372;92;21115;-76
2021/12/10 07:58:53;;;;;;;31.83;18.63;;;;;;;6.02;100.00;100286.14;1593646;89;21067;-74
2021/12/10 08:01:26;;;;;;;28.97;16.57;;;;;;;6.06;100.00;100288.06;1560962;91;21040;-73
2021/12/10 08:03:53;;;;;;;33.05;17.57;;;;;;;6.08;100.00;100290.95;1568632;91;21021;-74
2021/12/10 08:06:21;;;;;;;29.27;16.23;;;;;;;6.10;100.00;100292.66;1568824;91;21193;-73
2021/12/10 08:08:50;;;;;;;27.63;16.23;;;;;;;6.13;100.00;100278.98;1560295;91;21090;-74
2021/12/10 08:11:21;;;;;;;27.47;16.23;;;;;;;6.15;100.00;100276.50;1600214;88;21182;-74
2021/12/10 08:13:51;;;;;;;29.57;16.10;;;;;;;6.17;100.00;100269.16;1646473;86;21100;-74
2021/12/10 08:16:19;;;;;;;26.03;15.03;;;;;;;6.21;100.00;100267.04;1646101;86;21085;-75
2021/12/10 08:18:47;;;;;;;27.63;15.17;;;;;;;6.23;100.00;100263.72;1650536;86;21763;-74
2021/12/10 08:21:14;;;;;;;26.50;15.57;;;;;;;6.29;100.00;100271.24;1647943;86;21602;-74
2021/12/10 08:23:41;;;;;;;36.80;18.63;;;;;;;6.35;100.00;100269.33;1653596;86;21047;-72
2021/12/10 08:26:09;;;;;;;48.93;21.63;;;;;;;6.41;100.00;100264.77;1651134;86;21028;-73
2021/12/10 08:28:37;;;;;;;73.37;26.87;;;;;;;6.46;100.00;100261.17;1649655;86;21121;-73
2021/12/10 08:31:04;;;;;;;60.40;23.90;;;;;;;6.52;100.00;100249.52;1675682;84;21073;-72
2021/12/10 08:33:31;;;;;;;41.87;17.83;;;;;;;6.54;100.00;100251.56;1681057;84;20989;-73
2021/12/10 08:36:02;;;;;;;30.23;17.13;;;;;;;6.56;100.00;100246.89;1638110;86;20977;-71
2021/12/10 08:38:31;;;;;;;34.43;17.87;;;;;;;6.59;100.00;100247.47;1670930;85;21065;-71
2021/12/10 08:41:03;;;;;;;36.77;21.17;;;;;;;6.61;100.00;100246.83;1672500;85;20989;-73
2021/12/10 08:43:30;;;;;;;52.70;29.57;;;;;;;6.62;100.00;100238.26;1676443;84;21069;-75
2021/12/10 08:45:58;;;;;;;31.60;17.27;;;;;;;6.64;100.00;100233.12;1667705;85;21003;-73
2021/12/10 08:48:27;;;;;;;38.47;22.87;;;;;;;6.69;100.00;100234.02;1635300;86;21017;-74
2021/12/10 08:50:59;;;;;;;41.20;27.70;;;;;;;6.72;100.00;100223.50;1670001;85;21068;-74
2021/12/10 08:53:26;;;;;;;37.50;22.23;;;;;;;6.78;100.00;100221.57;1668392;84;21005;-74
2021/12/10 08:55:56;;;;;;;31.17;19.83;;;;;;;6.83;100.00;100221.52;1668339;85;21049;-73
2021/12/10 08:58:25;;;;;;;30.77;17.57;;;;;;;6.90;100.00;100208.33;1638589;86;21560;-74
2021/12/10 09:01:00;;;;;;;27.97;16.93;;;;;;;6.99;100.00;100206.16;1667753;84;21016;-75
2021/12/10 09:03:27;;;;;;;26.37;15.03;;;;;;;7.08;100.00;100204.92;1646007;86;21162;-73
2021/12/10 09:05:54;;;;;;;27.40;15.47;;;;;;;7.17;100.00;100190.59;1644947;86;21143;-74
2021/12/10 09:08:23;;;;;;;28.33;14.70;;;;;;;7.26;100.00;100198.29;1645209;86;21033;-76
2021/12/10 09:10:50;;;;;;;23.13;14.07;;;;;;;7.38;100.00;100191.27;1646800;85;21080;-74
2021/12/10 09:13:20;;;;;;;20.97;13.00;;;;;;;7.50;100.00;100189.73;1645252;86;21174;-76
2021/12/10 09:15:52;;;;;;;23.63;13.60;;;;;;;7.64;100.00;100188.41;1645741;86;21060;-72
2021/12/10 09:18:19;;;;;;;25.43;14.77;;;;;;;7.73;100.00;100188.84;1620691;87;21109;-73
2021/12/10 09:20:49;;;;;;;26.60;14.80;;;;;;;7.78;100.00;100179.83;1645992;86;20966;-73
2021/12/10 09:23:21;;;;;;;29.63;15.00;;;;;;;7.83;100.00;100180.74;1647823;86;21098;-71
2021/12/10 09:25:51;;;;;;;25.33;15.20;;;;;;;7.89;100.00;100176.09;1641283;85;21077;-70
2021/12/10 09:28:18;;;;;;;25.70;15.20;;;;;;;7.94;100.00;100175.14;1647430;86;20982;-69
2021/12/10 09:30:48;;;;;;;37.97;17.57;;;;;;;7.99;100.00;100172.34;1660229;86;21100;-69
2021/12/10 09:33:15;;;;;;;31.40;17.47;;;;;;;8.06;100.00;100174.44;1635086;85;21085;-69
2021/12/10 09:35:43;;;;;;;35.77;19.37;;;;;;;8.10;100.00;100189.29;1641443;85;21628;-70
2021/12/10 09:38:10;;;;;;;36.50;20.67;;;;;;;8.14;100.00;100178.55;1664213;85;21087;-70
2021/12/10 09:40:41;;;;;;;35.73;20.07;;;;;;;8.19;100.00;100176.25;1665987;86;21086;-70
2021/12/10 09:43:10;;;;;;;26.70;15.90;;;;;;;8.23;100.00;100170.05;1653980;86;21066;-71
2021/12/10 09:45:38;;;;;;;27.53;17.03;;;;;;;8.29;100.00;100163.56;1654600;86;21089;-71
2021/12/10 09:48:07;;;;;;;25.37;15.73;;;;;;;8.36;100.00;100161.11;1650231;86;21016;-71
2021/12/10 09:50:40;;;;;;;25.97;16.13;;;;;;;8.42;100.00;100160.52;1645649;86;21029;-70
2021/12/10 09:53:07;;;;;;;28.20;14.17;;;;;;;8.52;100.00;100153.20;1599497;89;21091;-72
2021/12/10 09:55:36;;;;;;;27.90;14.20;;;;;;;8.64;100.00;100144.38;1590766;88;21060;-72
2021/12/10 09:58:03;;;;;;;24.20;13.37;;;;;;;8.78;100.00;100154.24;1615975;88;21596;-73
2021/12/10 10:00:41;;;;;;;22.80;12.50;;;;;;;8.87;100.00;100155.52;1609375;88;21007;-76
2021/12/10 10:03:10;;;;;;;21.40;12.73;;;;;;;8.90;100.00;100159.73;1606248;88;21063;-72
2021/12/10 10:05:38;;;;;;;22.77;13.20;;;;;;;8.89;100.00;100156.70;1620789;87;21062;-75
2021/12/10 10:08:07;;;;;;;24.03;14.17;;;;;;;8.90;100.00;100166.47;1607697;87;21067;-74
2021/12/10 10:10:35;;;;;;;23.30;13.00;;;;;;;8.92;100.00;100165.80;1614049;88;21091;-74
2021/12/10 10:13:05;;;;;;;23.27;14.73;;;;;;;8.93;100.00;100175.60;1610141;87;21139;-73
2021/12/10 10:15:34;;;;;;;36.67;18.80;;;;;;;8.94;100.00;100177.28;1613483;88;21381;-72
2021/12/10 10:18:05;;;;;;;32.03;18.40;;;;;;;9.00;100.00;100182.57;1618709;88;21041;-74
2021/12/10 10:20:34;;;;;;;27.07;15.50;;;;;;;9.07;100.00;100183.63;1611450;88;21048;-77
2021/12/10 10:23:01;;;;;;;26.67;13.50;;;;;;;9.15;100.00;100186.88;1612173;87;21056;-75
2021/12/10 10:25:28;;;;;;;23.13;12.90;;;;;;;9.23;100.00;100193.17;1610337;88;21045;-73
2021/12/10 10:27:55;;;;;;;30.60;14.90;;;;;;;9.37;100.00;100190.41;1614978;87;21158;-73
2021/12/10 10:30:33;;;;;;;31.90;14.90;;;;;;;9.45;100.00;100179.63;1617661;87;21050;-74
2021/12/10 10:33:04;;;;;;;29.10;15.07;;;;;;;9.52;100.00;100179.00;1628219;87;21017;-74
2021/12/10 10:35:38;;;;;;;23.70;13.47;;;;;;;9.61;100.00;100180.73;1613531;88;21101;-75
2021/12/10 10:38:06;;;;;;;28.17;15.53;;;;;;;9.63;100.00;100177.36;1631470;87;21008;-75
2021/12/10 10:40:39;;;;;;;30.70;14.77;;;;;;;9.60;100.00;100183.11;1628855;88;21021;-74
2021/12/10 10:43:06;;;;;;;28.00;14.57;;;;;;;9.60;100.00;100203.36;1619783;87;21082;-74
2021/12/10 10:45:35;;;;;;;27.43;14.10;;;;;;;9.53;100.00;100201.80;1626672;88;21012;-73
2021/12/10 10:48:05;;;;;;;31.80;14.53;;;;;;;9.46;100.00;100204.28;1616171;87;21542;-72
2021/12/10 10:50:36;;;;;;;32.17;16.23;;;;;;;9.45;100.00;100200.39;1653251;85;21006;-69
2021/12/10 10:53:10;;;;;;;43.07;21.27;;;;;;;9.47;100.00;100199.72;1590155;90;21055;-70
2021/12/10 10:56:00;;;;;;;41.90;20.23;;;;;;;9.49;100.00;100200.40;1588645;88;21061;-71
2021/12/10 10:58:30;;;;;;;31.00;17.90;;;;;;;9.50;100.00;100195.36;1598567;88;21036;-70
2021/12/10 11:01:07;;;;;;;24.27;13.33;;;;;;;9.51;100.00;100201.11;1584359;90;21086;-70
2021/12/10 11:03:37;;;;;;;21.97;11.43;;;;;;;9.48;100.00;100203.61;1585575;90;21117;-69
2021/12/10 11:06:09;;;;;;;27.65;13.58;;;;;;;9.42;100.00;100204.27;1590845;90;21031;-72
2021/12/10 11:08:43;;;;;;;21.27;11.37;;;;;;;9.35;100.00;100201.86;1567495;90;21092;-70
2021/12/10 11:11:15;;;;;;;26.20;13.33;;;;;;;9.27;100.00;100199.94;1508920;94;21147;-70
2021/12/10 11:13:51;;;;;;;24.00;13.57;;;;;;;9.20;100.00;100206.14;1476397;96;21079;-75
2021/12/10 11:16:21;;;;;;;26.10;15.87;;;;;;;9.15;100.00;100199.02;1483465;96;21064;-73
2021/12/10 11:18:55;;;;;;;41.53;19.37;;;;;;;9.09;100.00;100193.24;1485078;96;21061;-72
2021/12/10 11:21:40;;;;;;;26.67;14.50;;;;;;;9.06;100.00;100194.06;1502926;95;21141;-73
2021/12/10 11:24:43;;;;;;;26.73;15.80;;;;;;;9.04;100.00;100192.87;1490678;95;21176;-72
2021/12/10 11:27:12;;;;;;;23.23;13.83;;;;;;;8.99;100.00;100213.23;1498385;95;21057;-72
2021/12/10 11:30:05;;;;;;;26.10;15.23;;;;;;;8.95;100.00;100211.86;1502873;95;21700;-72
2021/12/10 11:32:41;;;;;;;21.03;12.63;;;;;;;8.89;100.00;100208.78;1502287;95;21553;-74
2021/12/10 11:35:16;;;;;;;26.70;12.63;;;;;;;8.88;100.00;100203.03;1495563;95;21135;-74
2021/12/10 11:38:15;;;;;;;26.33;11.13;;;;;;;8.84;100.00;100208.40;1502218;95;21114;-74